Time;durP1;ratioP1;P1;durP2;ratioP2;P2;SDS_P1;SDS_P2;PMS_P1;PMS_P2;Temp;Humidity;BMP_temperature;BMP_pressure;BME280_temperature;BME280_humidity;BME280_pressure;Samples;Min_cycle;Max_cycle;Signal;HPM_P1;HPM_P2
2023/05/12 00:02:22;;;;;;;98.43;47.40;;;12.20;99.90;;;;;;4845533;29;20315;-60
2023/05/12 00:04:50;;;;;;;102.80;47.77;;;12.20;99.90;;;;;;4845340;29;20220;-60
2023/05/12 00:07:19;;;;;;;93.87;45.83;;;12.20;99.90;;;;;;4846449;29;20240;-60
2023/05/12 00:09:47;;;;;;;98.23;45.80;;;12.30;99.90;;;;;;4840945;29;20936;-60
2023/05/12 00:12:16;;;;;;;96.87;47.53;;;12.30;99.90;;;;;;4845479;29;20537;-60
2023/05/12 00:14:44;;;;;;;98.37;46.60;;;12.30;99.90;;;;;;4843134;29;20228;-60
2023/05/12 00:17:12;;;;;;;105.23;46.57;;;12.30;99.90;;;;;;4847194;29;20227;-60
2023/05/12 00:19:43;;;;;;;94.00;46.07;;;12.30;99.90;;;;;;4839135;29;20228;-60
2023/05/12 00:22:11;;;;;;;105.80;48.33;;;12.30;99.90;;;;;;4842268;29;20236;-60
2023/05/12 00:24:39;;;;;;;109.80;48.97;;;12.30;99.90;;;;;;4841495;29;20196;-60
2023/05/12 00:27:07;;;;;;;105.30;48.80;;;12.30;99.90;;;;;;4845371;29;20600;-60
2023/05/12 00:29:36;;;;;;;110.67;48.17;;;12.30;99.90;;;;;;4841063;29;20228;-60
2023/05/12 00:32:05;;;;;;;110.40;48.40;;;12.30;99.90;;;;;;4840155;29;20297;-60
2023/05/12 00:34:34;;;;;;;114.90;50.90;;;12.30;99.90;;;;;;4831994;29;20228;-60
2023/05/12 00:37:03;;;;;;;114.27;51.03;;;12.30;99.90;;;;;;4842061;29;20261;-60
2023/05/12 00:39:31;;;;;;;116.07;52.00;;;12.30;99.90;;;;;;4837455;29;20272;-60
2023/05/12 00:42:00;;;;;;;118.90;51.73;;;12.30;99.90;;;;;;4843967;29;20204;-60
2023/05/12 00:44:28;;;;;;;113.57;52.87;;;12.30;99.90;;;;;;4835649;29;20262;-60
2023/05/12 00:46:57;;;;;;;123.37;51.97;;;12.30;99.90;;;;;;4837188;29;20228;-60
2023/05/12 00:49:26;;;;;;;127.13;55.30;;;12.30;99.90;;;;;;4837385;29;20272;-60
2023/05/12 00:51:55;;;;;;;126.57;53.93;;;12.40;99.90;;;;;;4835566;29;20647;-60
2023/05/12 00:54:26;;;;;;;130.07;54.30;;;12.40;99.90;;;;;;4840058;29;20205;-60
2023/05/12 00:56:55;;;;;;;123.67;54.03;;;12.40;99.90;;;;;;4844015;29;20201;-60
2023/05/12 00:59:23;;;;;;;133.67;56.10;;;12.40;99.90;;;;;;4834810;29;20726;-60
2023/05/12 01:04:53;;;;;;;140.37;58.83;;;12.40;99.90;;;;;;5416741;24;20243;-60
2023/05/12 01:07:22;;;;;;;141.40;55.23;;;12.40;99.90;;;;;;4809331;29;20237;-60
2023/05/12 01:09:55;;;;;;;152.60;57.97;;;12.40;99.90;;;;;;4804292;29;20224;-60
2023/05/12 01:12:24;;;;;;;135.77;55.43;;;12.40;99.90;;;;;;4792921;29;20205;-60
2023/05/12 01:14:54;;;;;;;149.83;56.27;;;12.40;99.90;;;;;;4798010;29;20265;-61
2023/05/12 01:17:28;;;;;;;141.03;55.63;;;12.40;99.90;;;;;;4806618;29;20254;-60
2023/05/12 01:20:00;;;;;;;146.63;57.70;;;12.50;99.90;;;;;;4807410;29;20240;-60
2023/05/12 01:22:30;;;;;;;155.93;58.17;;;12.50;99.90;;;;;;4809556;29;20759;-60
2023/05/12 01:25:04;;;;;;;142.57;57.30;;;12.50;99.90;;;;;;4820961;29;20233;-60
2023/05/12 01:27:34;;;;;;;143.00;57.50;;;12.50;99.90;;;;;;4806599;29;20229;-60
2023/05/12 01:30:04;;;;;;;156.43;58.57;;;12.50;99.90;;;;;;4815294;29;20197;-61
2023/05/12 01:32:33;;;;;;;151.70;59.77;;;12.50;99.90;;;;;;4809683;29;20236;-61
2023/05/12 01:35:01;;;;;;;159.37;59.77;;;12.60;99.90;;;;;;4808260;29;20671;-61
2023/05/12 01:37:30;;;;;;;156.63;59.07;;;12.50;99.90;;;;;;4813274;29;20228;-61
2023/05/12 01:39:58;;;;;;;164.00;60.40;;;12.60;99.90;;;;;;4814177;29;20298;-60
2023/05/12 01:42:26;;;;;;;166.87;62.90;;;12.60;99.90;;;;;;4812341;29;20726;-60
2023/05/12 01:44:56;;;;;;;166.47;62.10;;;12.60;99.90;;;;;;4810398;29;20618;-60
2023/05/12 01:47:24;;;;;;;173.97;62.00;;;12.60;99.90;;;;;;4813673;29;20282;-61
2023/05/12 01:49:53;;;;;;;171.83;62.37;;;12.60;99.90;;;;;;4826088;29;20221;-61
2023/05/12 01:52:21;;;;;;;169.90;61.27;;;12.70;99.90;;;;;;4820914;29;20224;-60
2023/05/12 01:54:50;;;;;;;156.10;60.07;;;12.70;99.90;;;;;;4814918;29;20309;-61
2023/05/12 01:57:18;;;;;;;164.83;59.97;;;12.70;99.90;;;;;;4816953;29;20204;-61
2023/05/12 01:59:47;;;;;;;164.23;59.10;;;12.70;99.90;;;;;;4822716;29;21047;-61
2023/05/12 02:02:18;;;;;;;163.17;58.00;;;12.70;99.90;;;;;;4814576;29;21565;-61
2023/05/12 02:04:46;;;;;;;156.07;56.20;;;12.80;99.90;;;;;;4821672;29;20588;-61
2023/05/12 02:07:15;;;;;;;156.60;55.77;;;12.80;99.90;;;;;;4815622;29;20263;-60
2023/05/12 02:09:43;;;;;;;151.23;57.27;;;12.80;99.90;;;;;;4820964;29;20232;-60
2023/05/12 02:12:12;;;;;;;152.67;54.07;;;12.80;99.90;;;;;;4823062;29;20613;-60
2023/05/12 02:14:42;;;;;;;142.30;51.67;;;12.80;99.90;;;;;;4814910;29;20228;-61
2023/05/12 02:17:10;;;;;;;137.30;52.17;;;12.80;99.90;;;;;;4814664;29;20699;-61
2023/05/12 02:19:40;;;;;;;144.13;52.77;;;12.80;99.90;;;;;;4821112;29;20253;-61
2023/05/12 02:22:09;;;;;;;126.90;49.13;;;12.80;99.90;;;;;;4800577;29;20236;-61
2023/05/12 02:24:37;;;;;;;131.17;49.23;;;12.80;99.90;;;;;;4821088;29;20201;-60
2023/05/12 02:27:05;;;;;;;130.00;48.17;;;12.90;99.90;;;;;;4815458;29;20229;-61
2023/05/12 02:29:34;;;;;;;111.33;44.47;;;12.90;99.90;;;;;;4818022;29;20244;-61
2023/05/12 02:32:02;;;;;;;115.50;44.83;;;12.90;99.90;;;;;;4813191;29;20568;-61
2023/05/12 02:34:30;;;;;;;115.80;45.10;;;12.90;99.90;;;;;;4814742;29;20302;-61
2023/05/12 02:37:00;;;;;;;112.57;42.70;;;12.90;99.90;;;;;;4811505;29;20221;-61
2023/05/12 02:39:28;;;;;;;110.37;41.23;;;13.00;99.90;;;;;;4820552;29;20264;-60
2023/05/12 02:41:56;;;;;;;104.90;39.70;;;13.00;99.90;;;;;;4822093;29;20547;-61
2023/05/12 02:44:24;;;;;;;105.80;39.90;;;13.00;99.90;;;;;;4817866;29;20228;-61
2023/05/12 02:46:53;;;;;;;102.13;39.33;;;13.00;99.90;;;;;;4819851;29;20699;-61
2023/05/12 02:49:21;;;;;;;96.80;38.93;;;13.00;99.90;;;;;;4824677;29;20320;-61
2023/05/12 02:51:49;;;;;;;93.70;37.33;;;13.00;99.90;;;;;;4816589;29;20293;-60
2023/05/12 02:54:19;;;;;;;91.17;35.47;;;13.00;99.90;;;;;;4820764;29;20270;-60
2023/05/12 02:56:47;;;;;;;93.87;36.77;;;13.00;99.90;;;;;;4825722;29;20217;-60
2023/05/12 02:59:15;;;;;;;92.93;36.60;;;13.00;99.90;;;;;;4825151;29;20290;-61
2023/05/12 03:01:43;;;;;;;88.37;37.20;;;13.00;99.90;;;;;;4814332;29;20217;-61
2023/05/12 03:04:12;;;;;;;87.40;36.10;;;13.00;99.90;;;;;;4824435;29;20312;-61
2023/05/12 03:06:40;;;;;;;81.70;35.03;;;13.00;99.90;;;;;;4814736;29;20676;-61
2023/05/12 03:09:08;;;;;;;84.23;34.73;;;13.00;99.90;;;;;;4812006;29;20218;-61
2023/05/12 03:11:38;;;;;;;86.03;35.43;;;13.00;99.90;;;;;;4815746;29;20565;-61
2023/05/12 03:14:06;;;;;;;85.63;35.73;;;13.00;99.90;;;;;;4813428;29;20754;-61
2023/05/12 03:16:35;;;;;;;80.07;32.90;;;13.00;99.90;;;;;;4811835;29;20224;-61
2023/05/12 03:19:03;;;;;;;72.20;32.23;;;13.00;99.90;;;;;;4812319;29;20238;-61
2023/05/12 03:21:32;;;;;;;59.17;26.97;;;13.00;99.90;;;;;;4809799;29;20656;-60
2023/05/12 03:24:00;;;;;;;54.70;25.43;;;12.90;99.90;;;;;;4810083;29;20226;-61
2023/05/12 03:26:28;;;;;;;46.70;23.00;;;12.80;99.90;;;;;;4816170;29;20229;-61
2023/05/12 03:28:58;;;;;;;42.07;20.00;;;12.80;99.90;;;;;;4813524;29;20244;-60
2023/05/12 03:31:26;;;;;;;33.90;18.47;;;12.70;99.90;;;;;;4810269;29;20270;-61
2023/05/12 03:33:55;;;;;;;37.03;19.77;;;12.60;99.90;;;;;;4822240;29;20236;-60
2023/05/12 03:36:23;;;;;;;35.53;18.93;;;12.60;99.90;;;;;;4815485;29;20194;-60
2023/05/12 03:38:51;;;;;;;36.30;18.70;;;12.60;99.90;;;;;;4822567;29;20320;-61
2023/05/12 03:41:20;;;;;;;35.43;17.73;;;12.60;99.90;;;;;;4820293;29;20224;-61
2023/05/12 03:43:49;;;;;;;29.83;16.27;;;12.60;99.90;;;;;;4811592;29;20636;-60
2023/05/12 03:46:18;;;;;;;24.10;14.40;;;12.50;99.90;;;;;;4806133;29;20584;-61
2023/05/12 03:48:47;;;;;;;22.93;13.80;;;12.50;99.90;;;;;;4817987;29;20244;-60
2023/05/12 03:51:15;;;;;;;22.97;13.90;;;12.50;99.90;;;;;;4816156;29;20201;-61
2023/05/12 03:53:46;;;;;;;21.83;13.20;;;12.50;99.90;;;;;;4818837;29;20216;-61
2023/05/12 03:56:15;;;;;;;20.90;12.47;;;12.40;99.90;;;;;;4824355;29;20229;-61
2023/05/12 03:58:45;;;;;;;18.63;11.67;;;12.40;99.90;;;;;;4814105;29;20217;-60
2023/05/12 04:01:14;;;;;;;19.20;12.00;;;12.40;99.90;;;;;;4818315;29;20272;-61
2023/05/12 04:03:44;;;;;;;19.50;11.33;;;12.40;99.90;;;;;;4817958;29;20294;-60
2023/05/12 04:06:13;;;;;;;16.57;10.97;;;12.40;99.90;;;;;;4767949;29;1336946;-60
2023/05/12 04:08:41;;;;;;;20.67;11.83;;;12.40;99.90;;;;;;4822572;29;20233;-61
2023/05/12 04:11:09;;;;;;;19.80;11.60;;;12.30;99.90;;;;;;4811694;29;20297;-60
2023/05/12 04:13:38;;;;;;;18.57;11.57;;;12.30;99.90;;;;;;4814862;29;20570;-60
2023/05/12 04:16:07;;;;;;;16.57;10.77;;;12.30;99.90;;;;;;4810882;29;20237;-60
2023/05/12 04:18:35;;;;;;;15.97;11.63;;;12.30;99.90;;;;;;4812405;29;20296;-60
2023/05/12 04:21:05;;;;;;;17.27;11.13;;;12.30;99.90;;;;;;4806357;29;20206;-60
2023/05/12 04:23:33;;;;;;;16.80;10.73;;;12.30;99.90;;;;;;4807366;29;20360;-61
2023/05/12 04:26:04;;;;;;;15.67;10.60;;;12.30;99.90;;;;;;4817643;29;20774;-61
2023/05/12 04:28:32;;;;;;;15.20;10.07;;;12.30;99.90;;;;;;4812126;29;20252;-60
2023/05/12 04:31:03;;;;;;;19.97;10.37;;;12.20;99.90;;;;;;4809319;29;20297;-60
2023/05/12 04:33:31;;;;;;;17.33;10.00;;;12.20;99.90;;;;;;4812899;29;20848;-60
2023/05/12 04:36:00;;;;;;;16.33;10.00;;;12.20;99.90;;;;;;4812549;29;20215;-61
2023/05/12 04:38:29;;;;;;;21.10;10.90;;;12.20;99.90;;;;;;4802120;29;20735;-61
2023/05/12 04:40:59;;;;;;;18.03;10.00;;;12.10;99.90;;;;;;4812872;29;21703;-61
2023/05/12 04:43:27;;;;;;;18.77;11.17;;;12.10;99.90;;;;;;4820719;29;20236;-61
2023/05/12 04:45:58;;;;;;;22.40;12.40;;;12.10;99.90;;;;;;4818786;29;20272;-60
2023/05/12 04:48:27;;;;;;;17.10;11.90;;;12.10;99.90;;;;;;4809411;29;20201;-60
2023/05/12 04:50:58;;;;;;;20.57;13.13;;;12.10;99.90;;;;;;4811978;29;20213;-61
2023/05/12 04:53:26;;;;;;;20.33;12.97;;;12.10;99.90;;;;;;4811358;29;20241;-61
2023/05/12 04:55:56;;;;;;;20.93;11.80;;;12.10;99.90;;;;;;4812852;29;20317;-60
2023/05/12 04:58:24;;;;;;;21.50;12.60;;;12.10;99.90;;;;;;4812311;29;20728;-60
2023/05/12 05:00:53;;;;;;;19.90;11.50;;;12.10;99.90;;;;;;4808743;29;20282;-61
2023/05/12 05:03:21;;;;;;;17.93;10.70;;;12.00;99.90;;;;;;4811017;29;20208;-60
2023/05/12 05:05:49;;;;;;;15.27;10.47;;;12.00;99.90;;;;;;4810605;29;20314;-61
2023/05/12 05:08:17;;;;;;;15.67;9.33;;;12.00;99.90;;;;;;4793821;29;20816;-62
2023/05/12 05:10:46;;;;;;;14.63;9.40;;;11.90;99.90;;;;;;4813689;29;20278;-61
2023/05/12 05:13:15;;;;;;;12.90;8.67;;;12.00;99.90;;;;;;4809395;29;20228;-61
2023/05/12 05:15:50;;;;;;;17.50;9.47;;;11.90;99.90;;;;;;4810191;29;20229;-61
2023/05/12 05:18:18;;;;;;;15.70;8.93;;;11.90;99.90;;;;;;4815154;29;20213;-61
2023/05/12 05:20:50;;;;;;;10.60;8.10;;;11.90;99.90;;;;;;4813554;29;20217;-61
2023/05/12 05:23:26;;;;;;;18.10;8.80;;;11.90;99.90;;;;;;4806811;29;20649;-61
2023/05/12 05:25:54;;;;;;;14.70;8.60;;;11.80;99.90;;;;;;4807212;29;20221;-61
2023/05/12 05:28:25;;;;;;;14.83;9.13;;;11.80;99.90;;;;;;4812077;29;20323;-61
2023/05/12 05:30:53;;;;;;;14.10;8.73;;;11.80;99.90;;;;;;4813340;29;20239;-61
2023/05/12 05:33:21;;;;;;;13.50;8.40;;;11.80;99.90;;;;;;4806111;29;20219;-61
2023/05/12 05:35:50;;;;;;;14.70;8.97;;;11.70;99.90;;;;;;4814982;29;20266;-61
2023/05/12 05:38:18;;;;;;;13.70;8.23;;;11.70;99.90;;;;;;4806433;29;20282;-61
2023/05/12 05:40:46;;;;;;;13.80;8.97;;;11.70;99.90;;;;;;4809318;29;20253;-61
2023/05/12 05:43:21;;;;;;;16.33;8.70;;;11.70;99.90;;;;;;4808337;29;20236;-61
2023/05/12 05:45:51;;;;;;;17.60;9.13;;;11.60;99.90;;;;;;4812352;29;20225;-61
2023/05/12 05:48:19;;;;;;;13.17;8.50;;;11.60;99.90;;;;;;4799759;29;20622;-61
2023/05/12 05:50:48;;;;;;;12.57;7.57;;;11.60;99.90;;;;;;4817869;29;20224;-61
2023/05/12 05:53:17;;;;;;;14.47;9.30;;;11.60;99.90;;;;;;4811230;29;20225;-61
2023/05/12 05:55:45;;;;;;;16.07;8.30;;;11.50;99.90;;;;;;4818525;29;20700;-61
2023/05/12 05:58:14;;;;;;;12.57;8.13;;;11.50;99.90;;;;;;4808151;29;20224;-61
2023/05/12 06:00:42;;;;;;;12.80;7.97;;;11.50;99.90;;;;;;4818701;29;20695;-61
2023/05/12 06:03:12;;;;;;;13.50;8.77;;;11.50;99.90;;;;;;4807854;29;20629;-61
2023/05/12 06:05:41;;;;;;;14.00;9.07;;;11.50;99.90;;;;;;4813905;29;20271;-62
2023/05/12 06:08:12;;;;;;;14.20;8.57;;;11.50;99.90;;;;;;4818012;29;20240;-62
2023/05/12 06:10:40;;;;;;;11.37;7.97;;;11.50;99.90;;;;;;4824564;29;20229;-61
2023/05/12 06:13:09;;;;;;;9.20;7.17;;;11.50;99.90;;;;;;4822083;29;20248;-61
2023/05/12 06:15:37;;;;;;;11.07;7.27;;;11.50;99.90;;;;;;4818960;29;20207;-61
2023/05/12 06:18:06;;;;;;;15.20;7.97;;;11.50;99.90;;;;;;4815861;29;20197;-61
2023/05/12 06:20:36;;;;;;;14.17;8.00;;;11.50;99.90;;;;;;4815272;29;20226;-61
2023/05/12 06:23:04;;;;;;;9.03;7.40;;;11.50;99.90;;;;;;4816029;29;20220;-61
2023/05/12 06:25:33;;;;;;;8.03;6.73;;;11.50;99.90;;;;;;4793129;29;20580;-61
2023/05/12 06:28:01;;;;;;;8.67;6.33;;;11.50;99.90;;;;;;4812009;29;20224;-61
2023/05/12 06:30:29;;;;;;;11.27;7.10;;;11.50;99.90;;;;;;4812846;29;20261;-61
2023/05/12 06:32:58;;;;;;;9.37;7.07;;;11.40;99.90;;;;;;4811918;29;20205;-61
2023/05/12 06:35:26;;;;;;;11.40;6.90;;;11.50;99.90;;;;;;4821216;29;20233;-61
2023/05/12 06:37:56;;;;;;;7.60;6.83;;;11.50;99.90;;;;;;4820162;29;20240;-61
2023/05/12 06:40:24;;;;;;;9.97;7.43;;;11.50;99.90;;;;;;4819118;29;20714;-61
2023/05/12 06:42:52;;;;;;;9.13;7.10;;;11.50;99.90;;;;;;4814827;29;20232;-61
2023/05/12 06:45:22;;;;;;;9.47;7.63;;;11.50;99.90;;;;;;4817799;29;20253;-58
2023/05/12 06:47:50;;;;;;;11.47;7.77;;;11.50;99.90;;;;;;4818840;29;20211;-61
2023/05/12 06:50:19;;;;;;;9.77;8.20;;;11.50;99.90;;;;;;4818905;29;20311;-61
2023/05/12 06:52:47;;;;;;;11.33;7.40;;;11.50;99.90;;;;;;4820957;29;20320;-61
2023/05/12 06:55:19;;;;;;;9.53;7.30;;;11.50;99.90;;;;;;4817500;29;20649;-61
2023/05/12 06:57:50;;;;;;;15.13;7.77;;;11.50;99.90;;;;;;4812351;29;20237;-61
2023/05/12 07:00:19;;;;;;;9.60;7.90;;;11.50;99.90;;;;;;4808810;29;20204;-61
2023/05/12 07:02:47;;;;;;;12.17;8.07;;;11.50;99.90;;;;;;4816414;29;20226;-61
2023/05/12 07:05:17;;;;;;;11.57;8.00;;;11.60;99.90;;;;;;4814719;29;20862;-60
2023/05/12 07:07:46;;;;;;;13.23;7.83;;;11.50;99.90;;;;;;4827616;29;20235;-61
2023/05/12 07:10:14;;;;;;;11.80;7.90;;;11.50;99.90;;;;;;4813266;29;20231;-61
2023/05/12 07:12:43;;;;;;;9.97;7.97;;;11.50;99.90;;;;;;4809367;29;20236;-61
2023/05/12 07:15:12;;;;;;;8.93;7.17;;;11.60;99.90;;;;;;4818351;29;20622;-61
2023/05/12 07:17:40;;;;;;;10.97;7.53;;;11.60;99.90;;;;;;4827481;29;20228;-61
2023/05/12 07:20:09;;;;;;;8.73;7.37;;;11.60;99.90;;;;;;4816628;29;20225;-61
2023/05/12 07:22:38;;;;;;;8.27;7.43;;;11.60;99.90;;;;;;4827440;29;20228;-61
2023/05/12 07:25:07;;;;;;;10.37;7.83;;;11.60;99.90;;;;;;4820908;29;20542;-61
2023/05/12 07:27:35;;;;;;;9.43;7.53;;;11.60;99.90;;;;;;4820043;29;20200;-61
2023/05/12 07:30:06;;;;;;;11.07;6.97;;;11.70;99.90;;;;;;4815268;29;20601;-61
2023/05/12 07:32:35;;;;;;;10.93;8.50;;;11.70;99.90;;;;;;4822158;29;20228;-61
2023/05/12 07:35:04;;;;;;;8.80;7.90;;;11.70;99.90;;;;;;4810091;29;20336;-61
2023/05/12 07:37:32;;;;;;;9.60;8.60;;;11.80;99.90;;;;;;4821457;29;20232;-61
2023/05/12 07:40:00;;;;;;;8.73;7.93;;;11.80;99.90;;;;;;4812875;29;20249;-61
2023/05/12 07:42:28;;;;;;;10.77;8.77;;;11.80;99.90;;;;;;4821137;29;20256;-60
2023/05/12 07:44:56;;;;;;;10.00;8.73;;;11.80;99.90;;;;;;4805038;29;20229;-61
2023/05/12 07:47:27;;;;;;;10.03;9.03;;;11.80;99.90;;;;;;4804710;29;20228;-61
2023/05/12 07:49:56;;;;;;;10.30;9.20;;;11.90;99.90;;;;;;4793475;29;20225;-60
2023/05/12 07:52:24;;;;;;;11.17;9.50;;;11.90;99.90;;;;;;4807812;29;20229;-61
2023/05/12 07:54:52;;;;;;;11.50;9.40;;;12.00;99.90;;;;;;4818765;29;20705;-61
2023/05/12 07:57:20;;;;;;;12.80;10.20;;;12.00;99.90;;;;;;4820958;29;20213;-59
2023/05/12 07:59:49;;;;;;;13.90;11.07;;;12.00;99.90;;;;;;4814278;29;20610;-61
2023/05/12 08:02:17;;;;;;;12.83;10.53;;;12.00;99.90;;;;;;4814592;29;20274;-61
2023/05/12 08:04:47;;;;;;;16.67;11.67;;;12.00;99.90;;;;;;4820693;29;20265;-60
2023/05/12 08:07:15;;;;;;;14.47;12.00;;;12.00;99.90;;;;;;4809575;29;20263;-61
2023/05/12 08:09:43;;;;;;;13.63;11.50;;;12.00;99.90;;;;;;4825353;29;20233;-61
2023/05/12 08:12:12;;;;;;;14.73;12.63;;;12.10;99.90;;;;;;4817373;29;20229;-60
2023/05/12 08:14:40;;;;;;;18.53;13.43;;;12.10;99.90;;;;;;4809699;29;20724;-61
2023/05/12 08:17:09;;;;;;;18.67;13.30;;;12.20;99.90;;;;;;4812164;29;20604;-60
2023/05/12 08:19:37;;;;;;;16.23;12.93;;;12.20;99.90;;;;;;4819263;29;20719;-61
2023/05/12 08:22:07;;;;;;;18.03;12.57;;;12.30;99.90;;;;;;4827208;29;20260;-60
2023/05/12 08:24:35;;;;;;;14.87;12.47;;;12.30;99.90;;;;;;4813675;29;20254;-60
2023/05/12 08:27:04;;;;;;;15.90;12.97;;;12.40;99.90;;;;;;4820015;29;20399;-61
2023/05/12 08:29:32;;;;;;;17.50;13.00;;;12.40;99.90;;;;;;4813860;29;20253;-61
2023/05/12 08:32:00;;;;;;;17.60;13.87;;;12.50;99.90;;;;;;4819462;29;20577;-61
2023/05/12 08:34:29;;;;;;;18.17;13.50;;;12.60;99.90;;;;;;4818702;29;20220;-61
2023/05/12 08:36:58;;;;;;;19.47;14.40;;;12.70;99.90;;;;;;4827083;29;20591;-61
2023/05/12 08:39:29;;;;;;;21.90;14.90;;;12.70;99.90;;;;;;4818375;29;20241;-59
2023/05/12 08:42:09;;;;;;;20.80;14.67;;;12.80;99.90;;;;;;4814293;29;21373;-60
2023/05/12 08:44:38;;;;;;;25.63;16.53;;;12.80;99.90;;;;;;4819438;29;20743;-60
2023/05/12 08:47:08;;;;;;;27.33;16.17;;;12.90;99.90;;;;;;4821623;29;20290;-60
2023/05/12 08:49:39;;;;;;;28.70;16.30;;;13.00;99.90;;;;;;4816512;29;20738;-61
2023/05/12 08:52:09;;;;;;;31.40;19.13;;;13.00;99.90;;;;;;4819465;29;20233;-60
2023/05/12 08:54:40;;;;;;;32.53;20.00;;;13.00;99.90;;;;;;4826830;29;20665;-61
2023/05/12 08:57:23;;;;;;;32.77;19.53;;;13.10;99.90;;;;;;4815638;29;20223;-60
2023/05/12 08:59:54;;;;;;;36.83;22.10;;;13.10;99.90;;;;;;4807805;29;20879;-61
2023/05/12 09:02:23;;;;;;;42.57;24.27;;;13.10;99.90;;;;;;4810803;29;20247;-60
2023/05/12 09:04:53;;;;;;;43.63;24.07;;;13.20;99.90;;;;;;4798151;29;20286;-60
2023/05/12 09:07:23;;;;;;;46.07;24.57;;;13.30;99.90;;;;;;4816999;29;20323;-61
2023/05/12 09:09:58;;;;;;;47.63;26.30;;;13.30;99.90;;;;;;4815414;29;20236;-61
2023/05/12 09:12:30;;;;;;;46.20;26.40;;;13.40;99.90;;;;;;4820030;29;20229;-60
2023/05/12 09:15:03;;;;;;;48.40;25.87;;;13.40;99.90;;;;;;4827537;29;20227;-61
2023/05/12 09:17:32;;;;;;;55.73;28.43;;;13.50;99.90;;;;;;4811031;29;20232;-61
2023/05/12 09:20:00;;;;;;;49.67;26.93;;;13.50;99.90;;;;;;4825186;29;20216;-61
2023/05/12 09:22:29;;;;;;;46.23;25.80;;;13.50;99.90;;;;;;4816401;29;20269;-60
2023/05/12 09:24:59;;;;;;;44.63;26.07;;;13.60;99.90;;;;;;4816785;29;20233;-60
2023/05/12 09:27:28;;;;;;;44.50;25.07;;;13.60;99.90;;;;;;4811889;29;20266;-60
2023/05/12 09:29:57;;;;;;;46.77;24.90;;;13.60;99.90;;;;;;4819419;29;20675;-61
2023/05/12 09:32:34;;;;;;;42.30;23.40;;;13.60;99.90;;;;;;4808970;29;20229;-60
2023/05/12 09:35:04;;;;;;;39.40;22.40;;;13.50;99.90;;;;;;4814920;29;20237;-60
2023/05/12 09:37:33;;;;;;;41.03;23.90;;;13.50;99.90;;;;;;4819349;29;20692;-61
2023/05/12 09:40:04;;;;;;;41.07;23.00;;;13.50;99.90;;;;;;4811477;29;20328;-60
2023/05/12 09:42:34;;;;;;;45.03;23.60;;;13.60;99.90;;;;;;4795761;29;20277;-60
2023/05/12 09:45:03;;;;;;;38.47;23.10;;;13.70;99.90;;;;;;4819254;29;20196;-60
2023/05/12 09:47:36;;;;;;;37.80;21.97;;;13.80;99.90;;;;;;4816393;29;20233;-60
2023/05/12 09:50:06;;;;;;;40.63;22.00;;;13.80;99.90;;;;;;4823494;29;20243;-60
2023/05/12 09:52:37;;;;;;;34.07;20.80;;;13.80;99.90;;;;;;4821143;29;20344;-60
2023/05/12 09:55:10;;;;;;;29.00;17.97;;;13.90;99.90;;;;;;4818408;29;20247;-60
2023/05/12 09:57:41;;;;;;;27.47;17.47;;;14.00;99.90;;;;;;4806263;29;20657;-60
2023/05/12 10:00:12;;;;;;;28.37;17.87;;;14.00;99.90;;;;;;4813125;29;20304;-60
2023/05/12 10:03:04;;;;;;;26.03;16.47;;;14.00;99.90;;;;;;4809330;29;20320;-60
2023/05/12 10:05:33;;;;;;;26.20;15.93;;;14.10;99.90;;;;;;4813301;29;20241;-60
2023/05/12 10:08:03;;;;;;;25.50;16.50;;;14.10;99.90;;;;;;4815241;29;20224;-60
2023/05/12 10:10:34;;;;;;;21.40;14.43;;;14.00;99.90;;;;;;4820767;29;20236;-60
2023/05/12 10:13:04;;;;;;;20.27;13.27;;;14.00;99.90;;;;;;4827320;29;20628;-60
2023/05/12 10:15:34;;;;;;;20.50;13.47;;;14.10;99.90;;;;;;4814688;29;20265;-60
2023/05/12 10:18:03;;;;;;;20.87;13.20;;;14.20;99.90;;;;;;4820283;29;20244;-60
2023/05/12 10:20:32;;;;;;;17.77;12.17;;;14.40;99.90;;;;;;4813674;29;20921;-60
2023/05/12 10:23:02;;;;;;;18.47;12.17;;;14.50;99.90;;;;;;4818322;29;20279;-60
2023/05/12 10:25:32;;;;;;;14.17;10.47;;;14.70;99.90;;;;;;4812353;29;20665;-61
2023/05/12 10:28:03;;;;;;;13.53;10.33;;;14.80;99.90;;;;;;4795680;29;20698;-60
2023/05/12 10:30:32;;;;;;;12.87;9.40;;;14.90;99.90;;;;;;4807732;29;20275;-60
2023/05/12 10:33:01;;;;;;;9.07;8.00;;;14.80;99.90;;;;;;4811977;29;20217;-60
2023/05/12 10:35:35;;;;;;;8.17;7.20;;;14.70;99.90;;;;;;4813809;29;20228;-60
2023/05/12 10:38:07;;;;;;;9.47;7.40;;;14.70;99.90;;;;;;4808864;29;20854;-60
2023/05/12 10:40:37;;;;;;;11.17;7.53;;;14.70;99.90;;;;;;4812825;29;20285;-60
2023/05/12 10:43:05;;;;;;;10.10;7.10;;;14.80;99.90;;;;;;4810684;29;20220;-60
2023/05/12 10:45:37;;;;;;;6.97;6.27;;;15.00;99.90;;;;;;4812422;29;20212;-59
2023/05/12 10:48:07;;;;;;;6.97;6.27;;;15.10;99.90;;;;;;4810355;29;20201;-60
2023/05/12 10:50:35;;;;;;;6.63;5.93;;;15.10;99.90;;;;;;4812874;29;20341;-60
2023/05/12 10:53:03;;;;;;;7.20;6.50;;;15.10;99.90;;;;;;4815004;29;20221;-60
2023/05/12 10:55:33;;;;;;;7.03;6.33;;;15.00;99.90;;;;;;4807510;29;20282;-60
2023/05/12 10:58:08;;;;;;;6.57;5.97;;;15.10;99.90;;;;;;4804344;29;20228;-60
2023/05/12 11:00:45;;;;;;;9.37;6.13;;;15.00;99.90;;;;;;4813696;29;20206;-59
2023/05/12 11:03:15;;;;;;;6.50;5.90;;;15.20;99.90;;;;;;4808359;29;20294;-60
2023/05/12 11:05:45;;;;;;;6.30;5.47;;;15.30;99.90;;;;;;4805062;29;20641;-60
2023/05/12 11:08:16;;;;;;;5.20;4.80;;;15.40;99.90;;;;;;4809517;29;20243;-59
2023/05/12 11:10:46;;;;;;;5.83;5.33;;;15.50;99.90;;;;;;4816236;29;20228;-60
2023/05/12 11:13:16;;;;;;;7.23;5.43;;;15.60;99.90;;;;;;4820365;29;20249;-59
2023/05/12 11:15:44;;;;;;;5.60;5.20;;;15.70;99.90;;;;;;4821609;29;20251;-59
2023/05/12 11:18:12;;;;;;;5.17;4.77;;;15.80;99.90;;;;;;4811221;29;21095;-60
2023/05/12 11:20:41;;;;;;;5.20;4.80;;;15.70;99.90;;;;;;4803698;29;21461;-60
2023/05/12 11:23:09;;;;;;;4.90;4.53;;;15.80;99.90;;;;;;4815102;29;20279;-59
2023/05/12 11:25:37;;;;;;;5.67;5.17;;;16.00;99.90;;;;;;4816217;29;20234;-59
2023/05/12 11:28:11;;;;;;;5.60;5.10;;;16.20;99.90;;;;;;4825879;29;20227;-60
2023/05/12 11:30:50;;;;;;;5.77;5.27;;;16.40;99.90;;;;;;4821828;29;20661;-60
2023/05/12 11:33:23;;;;;;;5.10;4.80;;;16.50;99.90;;;;;;4821371;29;20278;-59
2023/05/12 11:35:51;;;;;;;4.87;4.47;;;16.60;99.90;;;;;;4824394;29;20828;-60
2023/05/12 11:38:23;;;;;;;5.27;4.87;;;16.70;99.90;;;;;;4821330;29;20301;-60
2023/05/12 11:40:51;;;;;;;5.83;5.43;;;16.90;99.90;;;;;;4823277;29;20229;-60
2023/05/12 11:43:21;;;;;;;5.77;5.37;;;17.00;99.90;;;;;;4811813;29;20228;-60
2023/05/12 11:45:50;;;;;;;5.80;5.40;;;17.30;99.90;;;;;;4821285;29;20252;-60
2023/05/12 11:48:20;;;;;;;6.30;5.90;;;17.60;99.90;;;;;;4818356;29;20253;-60
2023/05/12 11:50:50;;;;;;;6.63;6.00;;;17.90;99.90;;;;;;4820110;29;20237;-60
2023/05/12 11:53:19;;;;;;;6.30;5.90;;;18.10;99.90;;;;;;4804191;29;20277;-60
2023/05/12 11:55:51;;;;;;;5.80;5.50;;;18.10;99.90;;;;;;4817697;29;20230;-60
2023/05/12 11:58:21;;;;;;;6.90;6.33;;;17.90;99.90;;;;;;4818415;29;20231;-60
2023/05/12 12:00:51;;;;;;;9.47;8.47;;;17.60;99.90;;;;;;4826059;29;20228;-61
2023/05/12 12:03:21;;;;;;;8.70;7.80;;;17.50;99.90;;;;;;4820357;29;20655;-59
2023/05/12 12:05:58;;;;;;;8.13;7.43;;;17.10;99.90;;;;;;4829024;29;20295;-59
2023/05/12 12:08:27;;;;;;;7.97;6.67;;;16.90;99.90;;;;;;4822684;29;20633;-60
2023/05/12 12:10:55;;;;;;;8.67;7.80;;;16.70;99.90;;;;;;4826276;29;20295;-60
2023/05/12 12:13:24;;;;;;;8.73;7.90;;;16.40;99.90;;;;;;4814051;29;20286;-60
2023/05/12 12:15:54;;;;;;;8.40;7.60;;;16.20;99.90;;;;;;4819523;29;20244;-60
2023/05/12 12:18:23;;;;;;;7.70;7.07;;;16.20;99.90;;;;;;4825885;29;20204;-59
2023/05/12 12:20:51;;;;;;;6.67;6.00;;;16.30;99.90;;;;;;4825352;29;20522;-60
2023/05/12 12:23:19;;;;;;;5.60;5.30;;;16.50;99.90;;;;;;4803402;29;20233;-60
2023/05/12 12:25:47;;;;;;;4.80;4.57;;;16.80;99.90;;;;;;4820637;29;20245;-60
2023/05/12 12:28:16;;;;;;;7.63;4.87;;;16.80;99.90;;;;;;4825536;29;20249;-60
2023/05/12 12:30:44;;;;;;;5.40;5.00;;;16.70;99.90;;;;;;4802154;29;20254;-60
2023/05/12 12:33:13;;;;;;;5.83;5.30;;;16.40;99.90;;;;;;4819807;29;20225;-60
2023/05/12 12:35:42;;;;;;;5.70;5.30;;;16.40;99.90;;;;;;4820498;29;20250;-60
2023/05/12 12:38:10;;;;;;;6.53;6.07;;;16.30;99.90;;;;;;4826186;29;20601;-60
2023/05/12 12:40:38;;;;;;;7.10;6.60;;;16.20;99.90;;;;;;4824460;29;20311;-60
2023/05/12 12:43:07;;;;;;;7.93;6.77;;;16.20;99.90;;;;;;4816558;29;20749;-60
2023/05/12 12:45:35;;;;;;;7.63;7.03;;;16.30;99.90;;;;;;4813065;29;20204;-60